Time;durP1;ratioP1;P1;durP2;ratioP2;P2;SDS_P1;SDS_P2;PMS_P1;PMS_P2;Temp;Humidity;BMP_temperature;BMP_pressure;BME280_temperature;BME280_humidity;BME280_pressure;Samples;Min_cycle;Max_cycle;Signal;HPM_P1;HPM_P2
2022/09/27 00:01:09;;;;;;;5.93;0.50;;;9.90;99.90;;;;;;5009319;28;19909;-84
2022/09/27 00:03:35;;;;;;;5.50;0.43;;;9.90;99.90;;;;;;5008557;28;20088;-84
2022/09/27 00:06:07;;;;;;;6.15;0.60;;;9.90;99.90;;;;;;5008638;28;20375;-84
2022/09/27 00:08:35;;;;;;;3.58;0.40;;;9.90;99.90;;;;;;5006847;28;20554;-85
2022/09/27 00:11:06;;;;;;;5.55;0.40;;;9.90;99.90;;;;;;4992540;28;20022;-83
2022/09/27 00:13:32;;;;;;;5.82;0.50;;;9.80;99.90;;;;;;5007870;28;20029;-84
2022/09/27 00:15:59;;;;;;;3.35;0.50;;;9.80;99.90;;;;;;5011204;28;20025;-79
2022/09/27 00:18:26;;;;;;;6.90;0.60;;;9.90;99.90;;;;;;5007290;28;20045;-80
2022/09/27 00:20:52;;;;;;;5.22;0.40;;;9.90;99.90;;;;;;5008132;28;20434;-84
2022/09/27 00:23:18;;;;;;;5.20;0.50;;;9.80;99.90;;;;;;5007996;28;20651;-84
2022/09/27 00:25:57;;;;;;;6.78;0.47;;;9.80;99.90;;;;;;5024785;28;20466;-87
2022/09/27 00:28:24;;;;;;;5.38;0.40;;;9.90;99.90;;;;;;5009488;28;20100;-83
2022/09/27 00:30:50;;;;;;;6.50;0.60;;;9.90;99.90;;;;;;5008299;28;20049;-81
2022/09/27 00:33:16;;;;;;;8.15;0.73;;;9.80;99.90;;;;;;4991990;28;20030;-81
2022/09/27 00:35:42;;;;;;;5.45;0.40;;;9.80;99.90;;;;;;4992490;28;20061;-82
2022/09/27 00:38:08;;;;;;;2.90;0.43;;;9.80;99.90;;;;;;4992250;28;20045;-83
2022/09/27 00:40:34;;;;;;;4.47;0.30;;;9.90;99.90;;;;;;5008351;28;20030;-83
2022/09/27 00:43:00;;;;;;;6.45;0.40;;;9.90;99.90;;;;;;5008639;28;20076;-81
2022/09/27 00:45:25;;;;;;;6.13;1.25;;;9.80;99.90;;;;;;5008037;28;20084;-84
2022/09/27 00:47:56;;;;;;;3.22;0.30;;;9.80;99.90;;;;;;5009427;28;20113;-81
2022/09/27 00:50:36;;;;;;;5.15;0.32;;;9.90;99.90;;;;;;5024653;28;20104;-82
2022/09/27 00:53:17;;;;;;;5.10;0.30;;;9.80;99.90;;;;;;4992251;28;20084;-84
2022/09/27 00:55:50;;;;;;;3.92;0.30;;;9.80;99.90;;;;;;5007445;28;20033;-83
2022/09/27 00:58:19;;;;;;;2.53;0.28;;;9.80;99.90;;;;;;5007380;28;20100;-83
2022/09/27 01:00:50;;;;;;;5.32;0.30;;;9.80;99.90;;;;;;4991881;28;20535;-82
2022/09/27 01:03:27;;;;;;;3.88;0.28;;;9.80;99.90;;;;;;5007321;28;20022;-85
2022/09/27 01:05:53;;;;;;;3.17;0.20;;;9.90;99.90;;;;;;5007596;28;20026;-83
2022/09/27 01:08:19;;;;;;;4.13;0.35;;;9.80;99.90;;;;;;4990598;28;20022;-83
2022/09/27 01:11:07;;;;;;;4.68;0.20;;;9.80;99.90;;;;;;4990942;28;20116;-83
2022/09/27 01:14:05;;;;;;;7.80;0.60;;;9.80;99.90;;;;;;4989077;28;20038;-84
2022/09/27 01:16:39;;;;;;;5.28;0.25;;;9.80;99.90;;;;;;5024133;28;20033;-84
2022/09/27 01:19:26;;;;;;;3.08;0.17;;;9.90;99.90;;;;;;5023831;28;20080;-81
2022/09/27 01:22:19;;;;;;;3.28;0.20;;;9.90;99.90;;;;;;5006881;28;20586;-83
2022/09/27 01:25:10;;;;;;;2.83;0.20;;;9.90;99.90;;;;;;4988941;28;20360;-80
2022/09/27 01:27:50;;;;;;;3.88;0.30;;;9.90;99.90;;;;;;5007169;28;20032;-81
2022/09/27 01:30:42;;;;;;;2.28;0.20;;;9.90;99.90;;;;;;5005896;28;20454;-79
2022/09/27 01:33:07;;;;;;;2.50;0.20;;;9.80;99.90;;;;;;4995484;28;20080;-79
2022/09/27 01:36:05;;;;;;;2.63;0.30;;;9.80;99.90;;;;;;5005641;28;20023;-81
2022/09/27 01:38:42;;;;;;;5.85;0.22;;;9.80;99.90;;;;;;4990700;28;20382;-83
2022/09/27 01:41:34;;;;;;;2.20;0.10;;;9.70;99.90;;;;;;5022457;28;20034;-83
2022/09/27 01:44:29;;;;;;;4.07;0.63;;;9.70;99.90;;;;;;5008372;28;20041;-79
2022/09/27 01:47:13;;;;;;;3.35;0.20;;;9.70;99.90;;;;;;4991994;28;20022;-81
2022/09/27 01:49:48;;;;;;;2.30;0.10;;;9.70;99.90;;;;;;5023567;28;20034;-85
2022/09/27 01:52:19;;;;;;;4.10;0.30;;;9.60;99.90;;;;;;5006450;28;20079;-80
2022/09/27 01:54:51;;;;;;;2.25;0.10;;;9.60;99.90;;;;;;4991291;28;20026;-83
2022/09/27 01:57:59;;;;;;;2.03;0.10;;;9.60;99.90;;;;;;4985859;28;20510;-83
2022/09/27 02:00:26;;;;;;;1.52;0.25;;;9.50;99.90;;;;;;5021705;28;20027;-83
2022/09/27 02:03:02;;;;;;;4.47;0.17;;;9.50;99.90;;;;;;4991038;28;20168;-83
2022/09/27 02:05:45;;;;;;;1.98;0.10;;;9.40;99.90;;;;;;5006931;28;20038;-84
2022/09/27 02:08:56;;;;;;;2.40;0.10;;;9.40;99.90;;;;;;5006687;28;20045;-82
2022/09/27 02:11:44;;;;;;;1.70;0.10;;;9.40;99.90;;;;;;4993028;28;20030;-83
2022/09/27 02:14:23;;;;;;;1.85;0.40;;;9.40;99.90;;;;;;5008257;28;20061;-82
2022/09/27 02:17:03;;;;;;;2.33;0.20;;;9.30;99.90;;;;;;5023082;28;20064;-82
2022/09/27 02:19:48;;;;;;;1.90;0.10;;;9.30;99.90;;;;;;5022657;28;20070;-80
2022/09/27 02:22:19;;;;;;;2.88;0.10;;;9.20;99.90;;;;;;5005656;28;20060;-82
2022/09/27 02:24:55;;;;;;;4.20;0.17;;;9.20;99.90;;;;;;5004857;28;20030;-83
2022/09/27 02:27:38;;;;;;;3.40;0.30;;;9.10;99.90;;;;;;4990305;28;20037;-82
2022/09/27 02:30:12;;;;;;;1.20;0.10;;;9.10;99.90;;;;;;5007137;28;20425;-81
2022/09/27 02:32:41;;;;;;;3.88;0.20;;;9.10;99.90;;;;;;4990627;28;20502;-84
2022/09/27 02:35:30;;;;;;;5.68;0.25;;;9.00;99.90;;;;;;5006737;28;20030;-82
2022/09/27 02:37:57;;;;;;;1.80;0.10;;;9.00;99.90;;;;;;5006393;28;20044;-79
2022/09/27 02:40:26;;;;;;;5.72;0.20;;;8.90;99.90;;;;;;5006239;28;20034;-82
2022/09/27 02:42:52;;;;;;;4.28;0.28;;;9.00;99.90;;;;;;4989919;28;20383;-81
2022/09/27 02:45:18;;;;;;;3.70;0.20;;;9.00;99.90;;;;;;4990121;28;20072;-81
2022/09/27 02:47:50;;;;;;;2.85;0.30;;;9.00;99.90;;;;;;4989971;28;20042;-81
2022/09/27 02:50:19;;;;;;;3.22;0.70;;;9.00;99.90;;;;;;5005709;28;20038;-81
2022/09/27 02:53:06;;;;;;;1.65;0.20;;;8.90;99.90;;;;;;5006957;28;20029;-80
2022/09/27 02:55:57;;;;;;;1.40;0.20;;;8.90;99.90;;;;;;5008203;28;20026;-81
2022/09/27 02:59:16;;;;;;;2.80;0.10;;;8.80;99.90;;;;;;4989617;28;20411;-82
2022/09/27 03:02:26;;;;;;;2.63;0.13;;;8.80;99.90;;;;;;4958611;28;20042;-82
2022/09/27 03:05:26;;;;;;;3.25;0.30;;;8.80;99.90;;;;;;4975315;28;20176;-81
2022/09/27 03:07:52;;;;;;;4.10;0.20;;;8.80;99.90;;;;;;4952526;28;20042;-79
2022/09/27 03:10:22;;;;;;;3.28;0.20;;;8.80;99.90;;;;;;4972273;28;20090;-80
2022/09/27 03:12:49;;;;;;;2.40;0.17;;;8.70;99.90;;;;;;4972540;28;20470;-82
2022/09/27 03:15:15;;;;;;;2.40;0.10;;;8.70;99.90;;;;;;4989166;28;20045;-80
2022/09/27 03:17:56;;;;;;;2.17;0.20;;;8.70;99.90;;;;;;4988895;28;20068;-82
2022/09/27 03:20:24;;;;;;;1.98;0.20;;;8.70;99.90;;;;;;4988120;28;20027;-82
2022/09/27 03:22:58;;;;;;;5.05;0.47;;;8.70;99.90;;;;;;4972365;28;20173;-79
2022/09/27 03:25:23;;;;;;;2.20;0.20;;;8.80;99.90;;;;;;4988396;28;20030;-81
2022/09/27 03:27:50;;;;;;;1.92;0.10;;;8.80;99.90;;;;;;4956145;28;20042;-79
2022/09/27 03:30:15;;;;;;;3.40;0.30;;;8.60;99.90;;;;;;4971724;28;20039;-82
2022/09/27 03:32:42;;;;;;;1.08;0.20;;;8.70;99.90;;;;;;4983997;28;20026;-81
2022/09/27 03:35:26;;;;;;;1.98;0.20;;;8.70;99.90;;;;;;5009208;28;20052;-79
2022/09/27 03:37:52;;;;;;;5.75;0.30;;;8.70;99.90;;;;;;4992528;28;20521;-82
2022/09/27 03:40:18;;;;;;;5.05;0.22;;;8.70;99.90;;;;;;5008966;28;20251;-80
2022/09/27 03:42:44;;;;;;;3.38;0.40;;;8.70;99.90;;;;;;4992963;28;20046;-81
2022/09/27 03:45:10;;;;;;;1.98;0.20;;;8.70;99.90;;;;;;4992623;28;20490;-79
2022/09/27 03:47:40;;;;;;;1.35;0.25;;;8.70;99.90;;;;;;4992689;28;20030;-82
2022/09/27 03:50:07;;;;;;;3.22;0.20;;;8.80;99.90;;;;;;5007609;28;20065;-83
2022/09/27 03:52:33;;;;;;;2.28;0.20;;;8.80;99.90;;;;;;5008938;28;20414;-80
2022/09/27 03:54:59;;;;;;;3.50;0.20;;;8.80;99.90;;;;;;4992382;28;20433;-82
2022/09/27 03:57:26;;;;;;;6.65;0.30;;;8.80;99.90;;;;;;5008097;28;20109;-80
2022/09/27 03:59:53;;;;;;;3.45;0.30;;;8.80;99.90;;;;;;5009624;28;20030;-82
2022/09/27 04:02:40;;;;;;;3.17;0.40;;;8.80;99.90;;;;;;4998401;28;20434;-83
2022/09/27 04:05:27;;;;;;;4.28;0.30;;;8.90;99.90;;;;;;5008099;28;20033;-81
2022/09/27 04:08:13;;;;;;;9.48;1.05;;;8.80;99.90;;;;;;5009235;28;20088;-81
2022/09/27 04:10:41;;;;;;;4.78;0.30;;;8.90;99.90;;;;;;4991801;28;20034;-83
2022/09/27 04:13:08;;;;;;;4.32;0.55;;;8.90;99.90;;;;;;4990203;28;20029;-79
2022/09/27 04:15:42;;;;;;;4.20;0.63;;;8.90;99.90;;;;;;4992307;28;20030;-82
2022/09/27 04:18:43;;;;;;;4.43;0.63;;;8.90;99.90;;;;;;4995191;28;20050;-80
2022/09/27 04:21:27;;;;;;;2.72;0.30;;;8.80;99.90;;;;;;5007553;28;20052;-81
2022/09/27 04:23:54;;;;;;;3.90;0.35;;;8.90;99.90;;;;;;4974605;28;20033;-82
2022/09/27 04:26:22;;;;;;;6.68;0.30;;;8.90;99.90;;;;;;4972482;28;20041;-83
2022/09/27 04:28:51;;;;;;;3.07;0.30;;;8.90;99.90;;;;;;4972619;28;20065;-79
2022/09/27 04:31:18;;;;;;;4.35;0.40;;;9.00;99.90;;;;;;4980455;28;20053;-83
2022/09/27 04:36:25;;;;;;;2.90;0.30;;;9.00;99.90;;;;;;4994992;28;20065;-84
2022/09/27 04:37:10;;;;;;;2.25;0.30;;;9.00;99.90;;;;;;4989795;28;20032;-81
2022/09/27 04:39:38;;;;;;;3.03;0.30;;;9.00;99.90;;;;;;4990729;28;20037;-83
2022/09/27 04:42:05;;;;;;;6.35;0.32;;;9.00;99.90;;;;;;4985767;28;20387;-85
2022/09/27 04:44:30;;;;;;;4.18;0.40;;;9.00;99.90;;;;;;5006582;28;20030;-84
2022/09/27 04:46:56;;;;;;;3.22;0.20;;;9.10;99.90;;;;;;4987924;28;20478;-83
2022/09/27 04:49:22;;;;;;;5.05;0.40;;;9.10;99.90;;;;;;4990051;28;20064;-80
2022/09/27 04:51:47;;;;;;;5.07;0.40;;;9.10;99.90;;;;;;4983682;28;20113;-79
2022/09/27 04:54:13;;;;;;;7.78;0.40;;;9.10;99.90;;;;;;5005240;28;20062;-84
2022/09/27 04:57:01;;;;;;;3.83;0.30;;;9.20;99.90;;;;;;5006890;28;20061;-82
2022/09/27 04:59:27;;;;;;;8.00;0.50;;;9.10;99.90;;;;;;5007906;28;20061;-85
2022/09/27 05:01:53;;;;;;;9.15;0.30;;;9.10;99.90;;;;;;5008046;28;20105;-81
2022/09/27 05:04:35;;;;;;;6.95;0.40;;;9.10;99.90;;;;;;5007807;28;20483;-83
2022/09/27 05:07:03;;;;;;;4.28;0.22;;;9.20;99.90;;;;;;4991576;28;20030;-82
2022/09/27 05:09:36;;;;;;;3.38;0.30;;;9.10;99.90;;;;;;5007997;28;20034;-82
2022/09/27 05:12:04;;;;;;;6.95;0.52;;;9.10;99.90;;;;;;5007502;28;20490;-86
2022/09/27 05:14:29;;;;;;;3.80;0.50;;;9.10;99.90;;;;;;5008516;28;20052;-82
2022/09/27 05:17:17;;;;;;;5.85;0.30;;;9.00;99.90;;;;;;5005943;28;20038;-82
2022/09/27 05:20:02;;;;;;;9.23;0.35;;;9.00;99.90;;;;;;5008468;28;20045;-82
2022/09/27 05:22:39;;;;;;;6.88;0.52;;;8.90;99.90;;;;;;4992464;28;20116;-84
2022/09/27 05:25:05;;;;;;;3.53;0.28;;;8.90;99.90;;;;;;4990917;28;20029;-84
2022/09/27 05:27:30;;;;;;;7.32;0.60;;;8.90;99.90;;;;;;5006484;28;20026;-83
2022/09/27 05:29:59;;;;;;;2.65;0.30;;;8.90;99.90;;;;;;5006644;28;20038;-83
2022/09/27 05:32:29;;;;;;;5.22;0.60;;;8.90;99.90;;;;;;5006989;28;20438;-80
2022/09/27 05:35:16;;;;;;;4.07;0.32;;;8.90;99.90;;;;;;5006420;28;20997;-79
2022/09/27 05:37:42;;;;;;;4.68;0.30;;;8.90;99.90;;;;;;5007088;28;20037;-79
2022/09/27 05:40:08;;;;;;;4.07;0.30;;;8.90;99.90;;;;;;5006712;28;20026;-78
2022/09/27 05:42:37;;;;;;;2.90;0.20;;;8.90;99.90;;;;;;5006410;28;20495;-81
2022/09/27 05:45:05;;;;;;;1.88;0.20;;;8.80;99.90;;;;;;5022351;28;20026;-79
2022/09/27 05:47:31;;;;;;;4.20;0.25;;;8.90;99.90;;;;;;5006173;28;20030;-79
2022/09/27 05:49:57;;;;;;;2.33;0.20;;;8.80;99.90;;;;;;5004172;28;20038;-81
2022/09/27 05:52:23;;;;;;;2.15;0.28;;;8.80;99.90;;;;;;5022149;28;22406;-82
2022/09/27 05:54:50;;;;;;;3.55;0.20;;;8.80;99.90;;;;;;4990146;28;20402;-78
2022/09/27 05:57:16;;;;;;;5.07;0.40;;;8.80;99.90;;;;;;4989332;28;20065;-80
2022/09/27 05:59:46;;;;;;;4.70;0.40;;;8.80;99.90;;;;;;5005565;28;20116;-82
2022/09/27 06:02:44;;;;;;;4.40;0.30;;;8.80;99.90;;;;;;5007686;28;20512;-79
2022/09/27 06:05:30;;;;;;;3.60;0.30;;;8.80;99.90;;;;;;5007108;28;20065;-80
2022/09/27 06:08:15;;;;;;;3.00;0.28;;;8.70;99.90;;;;;;5007134;28;20048;-79
2022/09/27 06:10:46;;;;;;;3.90;0.20;;;8.70;99.90;;;;;;5005611;28;20471;-81
2022/09/27 06:13:14;;;;;;;4.32;0.30;;;8.70;99.90;;;;;;5005488;28;20030;-82
2022/09/27 06:15:43;;;;;;;6.55;0.38;;;8.70;99.90;;;;;;4990439;28;20026;-82
2022/09/27 06:18:12;;;;;;;4.95;0.38;;;8.70;99.90;;;;;;4989620;28;20027;-82
2022/09/27 06:20:41;;;;;;;4.23;0.40;;;8.70;99.90;;;;;;4989099;28;20025;-80
2022/09/27 06:23:13;;;;;;;2.83;0.30;;;8.70;99.90;;;;;;4989535;28;20283;-79
2022/09/27 06:25:40;;;;;;;3.88;0.40;;;8.70;99.90;;;;;;4989319;28;20068;-81
2022/09/27 06:28:16;;;;;;;4.65;0.40;;;8.70;99.90;;;;;;5007594;28;20021;-80
2022/09/27 06:30:46;;;;;;;3.88;0.30;;;8.70;99.90;;;;;;5025330;28;20038;-83
2022/09/27 06:33:20;;;;;;;2.53;0.30;;;8.70;99.90;;;;;;4993972;28;20034;-80
2022/09/27 06:35:50;;;;;;;2.15;0.25;;;8.70;99.90;;;;;;4992457;28;20034;-80
2022/09/27 06:38:17;;;;;;;6.35;0.30;;;8.80;99.90;;;;;;5011593;28;20023;-79
2022/09/27 06:41:08;;;;;;;6.50;0.40;;;9.00;99.90;;;;;;5026080;28;20065;-81
2022/09/27 06:44:03;;;;;;;2.83;0.20;;;9.20;99.90;;;;;;4995192;28;20038;-80
2022/09/27 06:47:01;;;;;;;3.72;0.20;;;9.20;99.90;;;;;;5001189;28;20585;-79
2022/09/27 06:49:43;;;;;;;1.35;0.28;;;9.10;99.90;;;;;;4969753;28;20038;-81
2022/09/27 06:52:09;;;;;;;4.28;0.20;;;9.10;99.90;;;;;;4988054;28;20057;-81
2022/09/27 06:54:34;;;;;;;3.75;0.30;;;9.10;99.90;;;;;;4989303;28;20038;-81
2022/09/27 06:57:00;;;;;;;3.55;0.30;;;9.20;99.90;;;;;;4988127;28;20359;-80
2022/09/27 07:02:30;;;;;;;2.95;0.20;;;9.30;99.90;;;;;;4987926;28;20085;-79
2022/09/27 07:05:24;;;;;;;5.00;0.20;;;9.30;99.90;;;;;;4987415;28;20038;-81
2022/09/27 07:08:10;;;;;;;5.18;0.20;;;9.30;99.90;;;;;;4987608;28;20619;-80
2022/09/27 07:10:38;;;;;;;3.53;0.20;;;9.20;99.90;;;;;;4989073;28;20047;-82
2022/09/27 07:13:08;;;;;;;1.92;0.17;;;9.30;99.90;;;;;;4951706;28;20018;-80
2022/09/27 07:15:39;;;;;;;2.17;0.20;;;9.30;99.90;;;;;;4970116;28;20129;-79
2022/09/27 07:18:09;;;;;;;3.38;0.38;;;9.50;99.90;;;;;;4988575;28;20592;-79
2022/09/27 07:20:37;;;;;;;1.20;0.13;;;9.80;99.90;;;;;;4963568;28;20046;-79
2022/09/27 07:23:04;;;;;;;1.63;0.38;;;9.70;99.90;;;;;;4993396;28;20122;-80
2022/09/27 07:25:32;;;;;;;1.15;0.22;;;9.70;99.90;;;;;;4992064;28;20037;-84
2022/09/27 07:28:03;;;;;;;2.40;0.30;;;9.70;99.90;;;;;;4993253;28;20064;-81
2022/09/27 07:30:30;;;;;;;2.05;0.20;;;9.90;99.90;;;;;;5015203;28;20128;-81
2022/09/27 07:33:00;;;;;;;1.60;0.30;;;9.90;99.90;;;;;;5007385;28;20502;-80
2022/09/27 07:35:27;;;;;;;1.45;0.20;;;10.00;99.90;;;;;;5007987;28;20033;-80
2022/09/27 07:37:55;;;;;;;2.03;0.20;;;9.90;99.90;;;;;;5009005;28;20014;-80
2022/09/27 07:40:21;;;;;;;4.47;0.30;;;9.90;99.90;;;;;;4986472;28;20057;-79
2022/09/27 07:42:53;;;;;;;3.47;0.20;;;9.80;99.90;;;;;;5008824;28;20125;-85
2022/09/27 07:45:18;;;;;;;2.25;0.40;;;9.90;99.90;;;;;;5007118;28;20022;-79
2022/09/27 07:48:07;;;;;;;2.17;0.30;;;9.80;99.90;;;;;;5009761;28;20092;-81
2022/09/27 07:50:52;;;;;;;1.15;0.22;;;9.80;99.90;;;;;;5013654;28;20080;-79
2022/09/27 07:53:41;;;;;;;2.78;0.30;;;9.80;99.90;;;;;;5000523;28;20034;-81
2022/09/27 07:56:25;;;;;;;1.65;0.30;;;9.80;99.90;;;;;;5009017;28;20037;-79
2022/09/27 07:58:51;;;;;;;1.13;0.17;;;9.80;99.90;;;;;;5005824;28;20026;-81
2022/09/27 08:01:16;;;;;;;4.00;0.40;;;9.90;99.90;;;;;;4991962;28;20064;-83
2022/09/27 08:03:43;;;;;;;3.03;0.22;;;9.90;99.90;;;;;;5008446;28;20104;-81
2022/09/27 08:06:09;;;;;;;3.70;0.75;;;9.90;99.90;;;;;;5007630;28;20025;-78
2022/09/27 08:08:36;;;;;;;1.67;0.17;;;9.90;99.90;;;;;;4991642;28;20030;-79
2022/09/27 08:11:13;;;;;;;3.60;0.20;;;10.10;99.90;;;;;;4990331;28;20029;-80
2022/09/27 08:13:42;;;;;;;2.75;0.20;;;10.20;99.90;;;;;;5024603;28;20026;-81
2022/09/27 08:16:09;;;;;;;2.30;0.15;;;10.20;99.90;;;;;;4991385;28;20026;-79
2022/09/27 08:18:55;;;;;;;2.10;0.20;;;10.20;99.90;;;;;;5008259;28;20022;-80
2022/09/27 08:21:55;;;;;;;5.68;0.22;;;10.20;99.90;;;;;;5006343;28;20042;-81
2022/09/27 08:24:23;;;;;;;1.15;0.20;;;10.20;99.90;;;;;;4987154;28;20061;-80
2022/09/27 08:27:01;;;;;;;1.35;0.28;;;10.20;99.90;;;;;;4985911;28;20486;-81
2022/09/27 08:29:41;;;;;;;0.85;0.13;;;10.10;99.90;;;;;;5007040;28;20095;-84
2022/09/27 08:32:08;;;;;;;2.22;0.13;;;10.20;99.90;;;;;;5005910;28;20030;-81
2022/09/27 08:34:34;;;;;;;1.55;0.20;;;10.30;99.90;;;;;;5005517;28;20381;-80
2022/09/27 08:36:59;;;;;;;2.60;0.20;;;10.30;99.90;;;;;;5006188;28;20461;-82
2022/09/27 08:39:25;;;;;;;3.85;0.20;;;10.40;99.90;;;;;;4984530;28;20077;-81
2022/09/27 08:42:02;;;;;;;1.02;0.20;;;10.30;99.90;;;;;;5006400;28;20129;-79
2022/09/27 08:44:51;;;;;;;1.83;0.20;;;10.30;99.90;;;;;;4973919;28;20173;-80
2022/09/27 08:47:48;;;;;;;5.13;0.22;;;10.30;99.90;;;;;;5006153;28;20033;-83
2022/09/27 08:50:36;;;;;;;4.97;0.30;;;10.50;99.90;;;;;;5000560;28;20069;-81
2022/09/27 08:53:16;;;;;;;2.60;0.57;;;10.30;99.90;;;;;;4987184;28;20109;-79
2022/09/27 08:55:49;;;;;;;4.90;0.40;;;10.40;99.90;;;;;;5006114;28;20045;-83
2022/09/27 08:58:43;;;;;;;1.05;0.25;;;10.30;99.90;;;;;;5003820;28;20073;-80
2022/09/27 09:01:17;;;;;;;1.17;0.20;;;10.30;99.90;;;;;;5006830;28;20127;-81
2022/09/27 09:03:59;;;;;;;1.80;0.30;;;10.30;99.90;;;;;;5008010;28;20024;-82
2022/09/27 09:06:33;;;;;;;3.25;0.30;;;10.40;99.90;;;;;;5006568;28;20029;-80
2022/09/27 09:09:10;;;;;;;1.75;0.57;;;10.40;99.90;;;;;;4990567;28;20034;-79
2022/09/27 09:14:56;;;;;;;2.85;0.50;;;10.30;99.90;;;;;;5009092;28;20037;-83
2022/09/27 09:18:01;;;;;;;3.47;0.75;;;10.20;99.90;;;;;;5006183;28;20026;-82
2022/09/27 09:21:06;;;;;;;1.33;0.40;;;10.30;99.90;;;;;;4989546;28;20124;-79
2022/09/27 09:23:52;;;;;;;1.33;0.50;;;10.60;99.90;;;;;;5006256;28;20112;-79
2022/09/27 09:26:52;;;;;;;2.33;0.40;;;10.50;99.90;;;;;;5006372;28;20040;-80
2022/09/27 09:29:29;;;;;;;1.27;0.40;;;10.50;99.90;;;;;;5006061;28;20032;-80
2022/09/27 09:32:21;;;;;;;2.08;0.40;;;10.60;99.90;;;;;;5020791;28;20048;-81
2022/09/27 09:35:05;;;;;;;1.73;0.30;;;10.70;99.90;;;;;;4990174;28;20072;-78
2022/09/27 09:37:42;;;;;;;2.08;0.40;;;10.80;99.90;;;;;;4989789;28;20045;-79
2022/09/27 09:40:18;;;;;;;1.40;0.30;;;10.60;99.90;;;;;;5005609;28;20033;-79
2022/09/27 09:42:51;;;;;;;1.60;0.40;;;10.80;99.90;;;;;;5006435;28;20053;-80
2022/09/27 09:45:32;;;;;;;1.25;0.30;;;10.80;99.90;;;;;;5005588;28;20017;-80
2022/09/27 09:48:26;;;;;;;0.85;0.22;;;10.70;99.90;;;;;;5006511;28;20091;-80
2022/09/27 09:50:56;;;;;;;1.60;0.30;;;10.90;99.90;;;;;;5002680;28;20050;-80
2022/09/27 09:53:31;;;;;;;;;;;10.80;99.90;;;;;;4990255;28;20056;-80
2022/09/27 09:56:05;;;;;;;0.77;0.40;;;10.70;99.90;;;;;;5013175;28;19916;-80
2022/09/27 09:58:37;;;;;;;0.70;0.30;;;10.50;99.90;;;;;;5004538;28;20049;-83
2022/09/27 10:01:19;;;;;;;1.20;0.30;;;10.50;99.90;;;;;;5004680;28;20053;-81
2022/09/27 10:03:45;;;;;;;2.05;0.80;;;10.50;99.90;;;;;;4986116;28;20483;-80
2022/09/27 10:06:13;;;;;;;1.60;0.40;;;10.50;99.90;;;;;;5021798;28;20032;-80
2022/09/27 10:08:39;;;;;;;1.15;0.40;;;10.60;99.90;;;;;;5006087;28;20046;-81
2022/09/27 10:11:35;;;;;;;2.55;0.60;;;10.50;99.90;;;;;;4991445;28;20033;-80
2022/09/27 10:14:21;;;;;;;3.50;1.10;;;10.30;99.90;;;;;;5007842;28;20099;-81
2022/09/27 10:16:55;;;;;;;1.95;0.70;;;10.20;99.90;;;;;;4989856;28;20026;-80
2022/09/27 10:19:30;;;;;;;2.65;0.80;;;10.20;99.90;;;;;;4986030;28;20038;-82
2022/09/27 10:22:02;;;;;;;4.22;0.60;;;10.20;99.90;;;;;;5022291;28;20117;-81
2022/09/27 10:24:28;;;;;;;3.17;0.70;;;10.10;99.90;;;;;;4992972;28;20033;-82
2022/09/27 10:27:04;;;;;;;2.90;0.60;;;10.20;99.90;;;;;;4991002;28;20076;-82
2022/09/27 10:29:35;;;;;;;3.47;0.70;;;10.20;99.90;;;;;;5006037;28;20483;-82
2022/09/27 10:32:04;;;;;;;2.05;0.70;;;10.20;99.90;;;;;;4989829;28;20026;-80
2022/09/27 10:34:39;;;;;;;1.70;0.80;;;10.30;99.90;;;;;;5021841;28;20034;-80
2022/09/27 10:37:17;;;;;;;4.22;0.95;;;10.30;99.90;;;;;;4987651;28;20117;-79
2022/09/27 10:40:29;;;;;;;5.22;0.70;;;10.30;99.90;;;;;;4997379;28;20475;-79
2022/09/27 10:42:57;;;;;;;1.85;0.35;;;10.40;99.90;;;;;;5004801;28;20441;-83
2022/09/27 10:45:33;;;;;;;4.13;0.50;;;10.30;99.90;;;;;;5006515;28;20356;-81
2022/09/27 10:48:22;;;;;;;3.25;0.75;;;10.30;99.90;;;;;;5005695;28;20057;-80
2022/09/27 10:51:01;;;;;;;3.05;0.20;;;10.20;99.90;;;;;;4987387;28;20048;-81
2022/09/27 10:53:45;;;;;;;2.65;0.50;;;10.30;99.90;;;;;;5005661;28;20060;-81
2022/09/27 10:56:27;;;;;;;4.45;0.60;;;10.30;99.90;;;;;;4989685;28;20467;-80
2022/09/27 10:58:54;;;;;;;1.90;0.40;;;10.20;99.90;;;;;;5004013;28;20030;-80
2022/09/27 11:01:22;;;;;;;2.42;0.40;;;10.30;99.90;;;;;;5021907;28;20030;-81
2022/09/27 11:04:25;;;;;;;6.00;0.40;;;10.30;99.90;;;;;;5003451;28;20041;-82
2022/09/27 11:06:51;;;;;;;4.55;0.30;;;10.30;99.90;;;;;;4999725;28;20557;-81
2022/09/27 11:09:25;;;;;;;4.18;0.40;;;10.40;99.90;;;;;;5003963;28;20034;-81
2022/09/27 11:12:09;;;;;;;1.88;0.30;;;10.50;99.90;;;;;;5004840;28;20068;-81
2022/09/27 11:14:35;;;;;;;2.95;0.30;;;10.40;99.90;;;;;;4988982;28;20081;-80
2022/09/27 11:17:46;;;;;;;1.58;0.20;;;10.30;99.90;;;;;;5006198;28;20388;-80
2022/09/27 11:20:15;;;;;;;1.10;0.10;;;10.40;99.90;;;;;;4990088;28;20415;-81
2022/09/27 11:22:44;;;;;;;2.50;0.10;;;10.30;99.90;;;;;;5006308;28;20537;-80
2022/09/27 11:25:29;;;;;;;0.93;0.10;;;10.30;99.90;;;;;;5004173;28;20029;-81
2022/09/27 11:28:17;;;;;;;2.53;0.20;;;10.40;99.90;;;;;;4991509;28;20064;-80
2022/09/27 11:30:43;;;;;;;1.92;0.10;;;10.60;99.90;;;;;;4985464;28;20043;-80
2022/09/27 11:33:49;;;;;;;0.68;0.10;;;10.40;99.90;;;;;;4990571;28;20100;-81
2022/09/27 11:36:42;;;;;;;0.70;0.10;;;10.60;99.90;;;;;;5003995;28;20026;-82
2022/09/27 11:39:21;;;;;;;1.33;0.05;;;10.60;99.90;;;;;;5005212;28;20026;-81
2022/09/27 11:41:58;;;;;;;1.80;0.10;;;10.70;99.90;;;;;;5007919;28;20034;-80
2022/09/27 11:45:09;;;;;;;1.88;0.40;;;10.70;99.90;;;;;;5007833;28;20033;-82
2022/09/27 11:48:04;;;;;;;1.65;0.10;;;10.70;99.90;;;;;;5023947;28;20022;-80
2022/09/27 11:50:57;;;;;;;0.73;0.03;;;10.70;99.90;;;;;;5023459;28;20046;-80
2022/09/27 11:54:17;;;;;;;0.95;0.10;;;10.80;99.90;;;;;;4988050;28;20092;-81
2022/09/27 11:57:09;;;;;;;0.75;0.10;;;11.10;99.90;;;;;;5001221;28;20156;-80
2022/09/27 12:00:01;;;;;;;0.65;0.10;;;11.10;99.90;;;;;;5007130;28;20038;-80
2022/09/27 12:03:28;;;;;;;0.88;0.10;;;10.90;99.90;;;;;;5023607;28;20125;-81
2022/09/27 12:06:01;;;;;;;1.80;0.10;;;11.10;99.90;;;;;;4951023;28;20467;-79
2022/09/27 12:08:52;;;;;;;0.90;0.10;;;11.40;99.90;;;;;;4935228;28;20499;-79
2022/09/27 12:11:20;;;;;;;2.35;0.03;;;11.60;99.90;;;;;;4950921;28;20480;-80
2022/09/27 12:14:11;;;;;;;1.50;0.10;;;11.90;99.90;;;;;;4951851;28;20450;-81
2022/09/27 12:16:40;;;;;;;1.63;0.10;;;11.50;99.90;;;;;;4951253;28;20062;-80
2022/09/27 12:19:37;;;;;;;1.80;0.10;;;11.40;99.90;;;;;;4951478;28;20031;-80
2022/09/27 12:22:14;;;;;;;0.40;0.00;;;11.50;99.90;;;;;;4935180;28;20442;-79
2022/09/27 12:24:44;;;;;;;0.77;0.00;;;11.20;99.90;;;;;;4951372;28;20035;-80
2022/09/27 12:27:39;;;;;;;2.25;0.10;;;11.10;99.90;;;;;;4967196;28;20510;-80
2022/09/27 12:30:12;;;;;;;2.85;0.10;;;10.90;99.90;;;;;;4950496;28;20596;-83
2022/09/27 12:32:55;;;;;;;0.95;0.10;;;10.70;99.90;;;;;;4951339;28;20043;-81
2022/09/27 12:35:31;;;;;;;0.57;0.00;;;10.90;99.90;;;;;;4950688;28;20037;-82
2022/09/27 12:38:11;;;;;;;2.45;0.10;;;10.90;99.90;;;;;;4949977;28;20022;-79
2022/09/27 12:40:51;;;;;;;2.58;0.10;;;10.90;99.90;;;;;;4989469;28;20490;-80
2022/09/27 12:43:28;;;;;;;0.77;0.10;;;11.10;99.90;;;;;;5006647;28;20107;-79
2022/09/27 12:46:16;;;;;;;1.25;0.10;;;11.30;99.90;;;;;;5005917;28;20054;-80
2022/09/27 12:49:26;;;;;;;0.68;0.00;;;11.30;99.90;;;;;;5023392;28;20390;-81
2022/09/27 12:52:00;;;;;;;0.47;0.00;;;11.20;99.90;;;;;;4990538;28;20026;-80
2022/09/27 12:55:00;;;;;;;0.57;0.00;;;11.60;99.90;;;;;;4990113;28;20022;-82
2022/09/27 12:57:40;;;;;;;0.73;0.00;;;11.60;99.90;;;;;;5006256;28;20117;-80
2022/09/27 13:00:24;;;;;;;0.30;0.00;;;11.60;99.90;;;;;;5005468;28;20053;-82
2022/09/27 13:03:12;;;;;;;0.57;0.00;;;11.20;99.90;;;;;;5006771;28;20442;-80
2022/09/27 13:06:07;;;;;;;2.83;0.20;;;10.90;99.90;;;;;;5006923;28;20040;-84
2022/09/27 13:08:49;;;;;;;0.25;0.00;;;10.80;99.90;;;;;;5006644;28;20109;-79
2022/09/27 13:11:49;;;;;;;0.15;0.00;;;10.70;99.90;;;;;;5004784;28;20098;-81
2022/09/27 13:14:26;;;;;;;1.05;0.00;;;10.60;99.90;;;;;;4995815;28;20092;-80
2022/09/27 13:16:53;;;;;;;0.47;0.10;;;10.60;99.90;;;;;;5006292;28;20034;-81
2022/09/27 13:19:44;;;;;;;0.45;0.00;;;10.70;99.90;;;;;;4990053;28;20065;-79
2022/09/27 13:22:27;;;;;;;0.52;0.00;;;10.70;99.90;;;;;;5006313;28;20079;-80
2022/09/27 13:25:50;;;;;;;0.47;0.00;;;11.00;99.90;;;;;;5008872;28;20557;-81
2022/09/27 13:28:28;;;;;;;0.98;0.60;;;11.20;99.90;;;;;;5005803;28;20057;-81
2022/09/27 13:30:55;;;;;;;0.20;0.00;;;11.00;99.90;;;;;;5006777;28;20099;-81
2022/09/27 13:33:47;;;;;;;0.08;0.00;;;10.80;99.90;;;;;;5006127;28;20044;-84
2022/09/27 13:36:26;;;;;;;0.20;0.00;;;10.70;99.90;;;;;;5021643;28;20033;-81
2022/09/27 13:39:10;;;;;;;0.95;0.00;;;10.80;99.90;;;;;;5005960;28;20044;-81
2022/09/27 13:42:07;;;;;;;0.60;0.00;;;10.70;99.90;;;;;;5006671;28;20046;-80
2022/09/27 13:44:48;;;;;;;0.20;0.00;;;10.70;99.90;;;;;;5004516;28;20054;-81
2022/09/27 13:47:34;;;;;;;0.20;0.00;;;10.50;99.90;;;;;;5006140;28;20115;-81
2022/09/27 13:50:32;;;;;;;1.58;0.00;;;10.50;99.90;;;;;;5006520;28;20430;-80
2022/09/27 13:53:17;;;;;;;1.10;0.10;;;10.40;99.90;;;;;;4990465;28;20527;-79